Time;durP1;ratioP1;P1;durP2;ratioP2;P2;SDS_P1;SDS_P2;PMS_P1;PMS_P2;Temp;Humidity;BMP_temperature;BMP_pressure;BME280_temperature;BME280_humidity;BME280_pressure;Samples;Min_cycle;Max_cycle;Signal;HPM_P1;HPM_P2
2022/02/12 00:19:45;;;;;;;8.00;6.10;;;;;;;;;;5181241;27;20097;-58
2022/02/12 00:22:11;;;;;;;7.40;6.37;;;;;;;;;;5218382;27;20106;-58
2022/02/12 00:24:37;;;;;;;7.97;6.12;;;;;;;;;;5200616;27;20068;-58
2022/02/12 00:27:03;;;;;;;6.70;6.00;;;;;;;;;;5200498;27;20073;-58
2022/02/12 00:29:29;;;;;;;8.93;6.03;;;;;;;;;;5200381;27;20102;-58
2022/02/12 00:31:55;;;;;;;8.52;6.72;;;;;;;;;;5199599;27;20088;-58
2022/02/12 00:34:21;;;;;;;7.55;6.62;;;;;;;;;;5200537;27;20501;-58
2022/02/12 00:36:47;;;;;;;9.82;7.03;;;;;;;;;;5198578;27;20192;-58
2022/02/12 00:39:13;;;;;;;8.75;6.60;;;;;;;;;;5199061;27;20096;-59
2022/02/12 00:41:40;;;;;;;13.10;8.40;;;;;;;;;;5200393;27;20081;-59
2022/02/12 00:44:06;;;;;;;10.00;8.57;;;;;;;;;;5200009;27;20081;-59
2022/02/12 00:46:32;;;;;;;14.63;12.90;;;;;;;;;;5199747;27;20562;-59
2022/02/12 00:48:58;;;;;;;16.80;11.95;;;;;;;;;;5194721;27;20159;-59
2022/02/12 00:51:25;;;;;;;22.30;16.80;;;;;;;;;;5178792;27;20098;-59
2022/02/12 00:53:51;;;;;;;14.30;11.35;;;;;;;;;;5178954;27;20085;-58
2022/02/12 00:56:18;;;;;;;11.27;9.73;;;;;;;;;;5178953;27;20093;-59
2022/02/12 00:58:43;;;;;;;17.08;14.05;;;;;;;;;;5180138;27;20090;-59
2022/02/12 01:01:09;;;;;;;56.50;39.88;;;;;;;;;;5180305;27;20494;-59
2022/02/12 01:03:36;;;;;;;66.70;49.60;;;;;;;;;;5180597;27;20101;-59
2022/02/12 01:06:02;;;;;;;57.65;43.70;;;;;;;;;;5180650;27;20097;-60
2022/02/12 01:08:28;;;;;;;51.22;41.37;;;;;;;;;;5180646;27;20102;-59
2022/02/12 01:10:54;;;;;;;40.65;32.92;;;;;;;;;;5180497;27;20210;-59
2022/02/12 01:13:20;;;;;;;38.75;26.95;;;;;;;;;;5180597;27;20112;-59
2022/02/12 01:15:46;;;;;;;29.77;22.37;;;;;;;;;;5180567;27;20474;-59
2022/02/12 01:18:12;;;;;;;25.65;21.75;;;;;;;;;;5180906;27;20101;-58
2022/02/12 01:20:39;;;;;;;21.85;19.08;;;;;;;;;;5180556;27;20098;-59
2022/02/12 01:23:06;;;;;;;22.62;17.90;;;;;;;;;;5180331;27;20100;-59
2022/02/12 01:25:33;;;;;;;32.60;22.83;;;;;;;;;;5180503;27;20069;-59
2022/02/12 01:27:59;;;;;;;66.78;45.30;;;;;;;;;;5180569;27;20487;-59
2022/02/12 01:30:26;;;;;;;63.17;43.80;;;;;;;;;;5180479;27;20130;-59
2022/02/12 01:32:53;;;;;;;62.78;40.47;;;;;;;;;;5180392;27;20066;-58
2022/02/12 01:35:23;;;;;;;43.08;29.45;;;;;;;;;;5180380;27;20472;-58
2022/02/12 01:37:49;;;;;;;37.28;23.30;;;;;;;;;;5180405;27;20069;-58
2022/02/12 01:40:16;;;;;;;32.20;21.20;;;;;;;;;;5180282;27;20489;-59
2022/02/12 01:42:42;;;;;;;29.60;18.20;;;;;;;;;;5180384;27;20160;-58
2022/02/12 01:45:08;;;;;;;24.00;15.90;;;;;;;;;;5180131;27;20070;-59
2022/02/12 01:47:35;;;;;;;22.58;15.35;;;;;;;;;;5180397;27;20093;-59
2022/02/12 01:50:01;;;;;;;20.23;13.32;;;;;;;;;;5180283;27;20087;-60
2022/02/12 01:52:31;;;;;;;18.60;11.18;;;;;;;;;;5178630;27;20175;-57
2022/02/12 01:54:57;;;;;;;9.10;7.93;;;;;;;;;;5178486;27;20191;-60
2022/02/12 01:57:23;;;;;;;11.18;8.15;;;;;;;;;;5180364;27;20446;-59
2022/02/12 01:59:49;;;;;;;9.32;7.80;;;;;;;;;;5180241;27;20076;-59
2022/02/12 02:02:15;;;;;;;10.93;9.30;;;;;;;;;;5180132;27;20064;-59
2022/02/12 02:04:41;;;;;;;11.43;8.57;;;;;;;;;;5180096;27;20397;-59
2022/02/12 02:07:09;;;;;;;11.68;8.80;;;;;;;;;;5178764;27;20081;-59
2022/02/12 02:09:35;;;;;;;14.68;10.43;;;;;;;;;;5180135;27;20070;-59
2022/02/12 02:12:02;;;;;;;12.95;10.65;;;;;;;;;;5180140;27;20481;-59
2022/02/12 02:14:33;;;;;;;14.43;10.77;;;;;;;;;;5180030;27;20082;-59
2022/02/12 02:16:59;;;;;;;18.40;12.07;;;;;;;;;;5180110;27;20097;-58
2022/02/12 02:19:25;;;;;;;14.77;10.63;;;;;;;;;;5180022;27;20093;-60
2022/02/12 02:21:53;;;;;;;14.48;11.20;;;;;;;;;;5180000;27;20081;-60
2022/02/12 02:24:19;;;;;;;14.65;10.95;;;;;;;;;;5179884;27;20086;-60
2022/02/12 02:26:45;;;;;;;15.13;11.30;;;;;;;;;;5180129;27;20085;-59
2022/02/12 02:29:11;;;;;;;12.73;11.35;;;;;;;;;;5179681;27;20102;-60
2022/02/12 02:31:38;;;;;;;16.75;11.12;;;;;;;;;;5180152;27;20086;-60
2022/02/12 02:34:11;;;;;;;15.65;11.45;;;;;;;;;;5180025;27;20172;-60
2022/02/12 02:36:37;;;;;;;16.48;12.18;;;;;;;;;;5179959;27;20086;-59
2022/02/12 02:39:04;;;;;;;14.68;12.90;;;;;;;;;;5180088;27;20567;-59
2022/02/12 02:41:31;;;;;;;14.90;11.15;;;;;;;;;;5180033;27;20405;-59
2022/02/12 02:43:57;;;;;;;14.65;12.13;;;;;;;;;;5178211;27;20418;-60
2022/02/12 02:46:23;;;;;;;12.30;10.50;;;;;;;;;;5180253;27;20158;-60
2022/02/12 02:48:49;;;;;;;12.52;9.48;;;;;;;;;;5179938;27;20078;-58
2022/02/12 02:56:44;;;;;;;11.43;9.60;;;;;;;;;;5180010;27;20085;-59
2022/02/12 02:59:10;;;;;;;10.45;8.75;;;;;;;;;;5179915;27;20183;-58
2022/02/12 03:01:36;;;;;;;11.68;8.43;;;;;;;;;;5179539;27;20180;-59
2022/02/12 03:04:03;;;;;;;11.12;8.68;;;;;;;;;;5179699;27;20098;-58
2022/02/12 03:06:30;;;;;;;10.10;8.65;;;;;;;;;;5179847;27;20066;-59
2022/02/12 03:08:58;;;;;;;11.07;8.02;;;;;;;;;;5195720;27;20086;-59
2022/02/12 03:11:24;;;;;;;9.18;7.80;;;;;;;;;;5179637;27;20092;-59
2022/02/12 03:13:52;;;;;;;10.30;8.43;;;;;;;;;;5179816;27;20069;-59
2022/02/12 03:16:18;;;;;;;10.45;8.25;;;;;;;;;;5179862;27;20215;-59
2022/02/12 03:18:46;;;;;;;11.15;8.88;;;;;;;;;;5178393;27;20065;-59
2022/02/12 03:21:12;;;;;;;11.35;9.23;;;;;;;;;;5195653;27;20410;-59
2022/02/12 03:23:40;;;;;;;9.70;8.73;;;;;;;;;;5178246;27;20167;-60
2022/02/12 03:26:06;;;;;;;10.10;8.77;;;;;;;;;;5179651;27;20104;-59
2022/02/12 03:28:32;;;;;;;10.68;9.05;;;;;;;;;;5179751;27;20066;-59
2022/02/12 03:30:58;;;;;;;9.57;7.60;;;;;;;;;;5179690;27;20107;-59
2022/02/12 03:33:24;;;;;;;8.05;7.10;;;;;;;;;;5179858;27;20082;-59
2022/02/12 03:35:53;;;;;;;10.07;7.12;;;;;;;;;;5179792;27;20233;-59
2022/02/12 03:38:27;;;;;;;7.75;6.70;;;;;;;;;;5179671;27;20387;-59
2022/02/12 03:40:56;;;;;;;9.18;6.78;;;;;;;;;;5179639;27;20254;-59
2022/02/12 03:43:22;;;;;;;8.50;6.68;;;;;;;;;;5179290;27;20171;-57
2022/02/12 03:45:48;;;;;;;7.78;6.45;;;;;;;;;;5179377;27;20098;-59
2022/02/12 03:48:15;;;;;;;11.85;7.28;;;;;;;;;;5179558;27;20179;-58
2022/02/12 03:50:42;;;;;;;7.85;6.32;;;;;;;;;;5179635;27;20086;-58
2022/02/12 03:53:09;;;;;;;10.07;7.10;;;;;;;;;;5179468;27;20090;-58
2022/02/12 03:55:39;;;;;;;6.65;5.47;;;;;;;;;;5179588;27;20096;-58
2022/02/12 03:58:07;;;;;;;7.22;5.68;;;;;;;;;;5179507;27;20418;-58
2022/02/12 04:00:34;;;;;;;7.22;5.80;;;;;;;;;;5179365;27;20537;-59
2022/02/12 04:03:01;;;;;;;10.32;7.22;;;;;;;;;;5179373;27;20108;-58
2022/02/12 04:05:27;;;;;;;9.38;7.35;;;;;;;;;;5178553;27;20362;-59
2022/02/12 04:07:53;;;;;;;10.75;7.40;;;;;;;;;;5174528;27;20421;-59
2022/02/12 04:10:20;;;;;;;11.12;7.55;;;;;;;;;;5174769;27;20101;-58
2022/02/12 04:12:48;;;;;;;13.15;8.63;;;;;;;;;;5175159;27;20184;-59
2022/02/12 04:15:14;;;;;;;11.60;8.13;;;;;;;;;;5175285;27;20103;-59
2022/02/12 04:17:40;;;;;;;9.32;7.55;;;;;;;;;;5175657;27;20094;-60
2022/02/12 04:20:09;;;;;;;13.77;9.90;;;;;;;;;;5175490;27;20078;-63
2022/02/12 04:22:36;;;;;;;13.70;10.05;;;;;;;;;;5174318;27;20520;-60
2022/02/12 04:25:03;;;;;;;14.60;12.43;;;;;;;;;;5172565;27;20086;-59
2022/02/12 04:27:29;;;;;;;17.80;14.00;;;;;;;;;;5173210;27;20388;-58
2022/02/12 04:29:56;;;;;;;16.62;12.77;;;;;;;;;;5174464;27;20081;-66
2022/02/12 04:32:22;;;;;;;16.58;11.68;;;;;;;;;;5174014;27;20081;-60
2022/02/12 04:34:49;;;;;;;11.52;9.18;;;;;;;;;;5174288;27;20121;-59
2022/02/12 04:37:16;;;;;;;13.43;10.40;;;;;;;;;;5173663;27;20093;-60
2022/02/12 04:39:42;;;;;;;13.98;9.32;;;;;;;;;;5174204;27;20082;-59
2022/02/12 04:42:11;;;;;;;16.17;10.57;;;;;;;;;;5172981;27;21013;-59
2022/02/12 04:44:41;;;;;;;16.35;12.00;;;;;;;;;;5170111;27;20148;-60
2022/02/12 04:47:08;;;;;;;23.83;14.18;;;;;;;;;;5177510;27;20062;-59
2022/02/12 04:49:35;;;;;;;34.35;12.55;;;;;;;;;;5178185;27;20484;-59
2022/02/12 04:52:01;;;;;;;21.90;11.63;;;;;;;;;;5177857;27;20512;-62
2022/02/12 04:54:27;;;;;;;27.90;10.85;;;;;;;;;;5176665;27;20508;-61
2022/02/12 04:56:53;;;;;;;21.35;12.18;;;;;;;;;;5174748;27;20461;-59
2022/02/12 04:59:19;;;;;;;57.47;12.20;;;;;;;;;;5176839;27;20101;-60
2022/02/12 05:01:45;;;;;;;16.45;10.85;;;;;;;;;;5176645;27;20089;-64
2022/02/12 05:04:11;;;;;;;35.17;6.93;;;;;;;;;;5176939;27;20085;-60
2022/02/12 05:06:38;;;;;;;48.40;9.07;;;;;;;;;;5177054;27;20601;-61
2022/02/12 05:09:04;;;;;;;8.18;5.28;;;;;;;;;;5192323;27;20096;-59
2022/02/12 05:11:30;;;;;;;5.03;3.80;;;;;;;;;;5176856;27;20085;-60
2022/02/12 05:13:56;;;;;;;5.03;3.60;;;;;;;;;;5178909;27;20532;-61
2022/02/12 05:16:22;;;;;;;6.62;4.87;;;;;;;;;;5178102;27;20069;-61
2022/02/12 05:18:48;;;;;;;6.60;4.55;;;;;;;;;;5177727;27;20609;-61
2022/02/12 05:21:14;;;;;;;7.05;4.85;;;;;;;;;;5178098;27;20093;-61
2022/02/12 05:23:40;;;;;;;7.60;4.82;;;;;;;;;;5177860;27;20078;-61
2022/02/12 05:26:06;;;;;;;6.57;4.35;;;;;;;;;;5178844;27;20070;-62
2022/02/12 05:28:33;;;;;;;5.78;3.62;;;;;;;;;;5178004;27;20070;-61
2022/02/12 05:30:59;;;;;;;4.47;3.12;;;;;;;;;;5180289;27;20077;-61
2022/02/12 05:33:25;;;;;;;5.07;3.12;;;;;;;;;;5179479;27;20275;-63
2022/02/12 05:35:51;;;;;;;6.57;3.55;;;;;;;;;;5180310;27;20096;-63
2022/02/12 05:38:17;;;;;;;6.07;3.97;;;;;;;;;;5180308;27;20474;-63
2022/02/12 05:40:43;;;;;;;8.02;4.10;;;;;;;;;;5180607;27;20070;-62
2022/02/12 05:43:09;;;;;;;10.02;5.60;;;;;;;;;;5180278;27;20076;-62
2022/02/12 05:45:36;;;;;;;7.50;5.15;;;;;;;;;;5180368;27;20144;-63
2022/02/12 05:48:02;;;;;;;14.20;7.00;;;;;;;;;;5180352;27;20073;-60
2022/02/12 05:50:29;;;;;;;19.25;7.90;;;;;;;;;;5180509;27;20074;-60
2022/02/12 05:52:57;;;;;;;16.12;8.65;;;;;;;;;;5178500;27;20082;-60
2022/02/12 05:55:24;;;;;;;18.00;9.80;;;;;;;;;;5180223;27;20515;-60
2022/02/12 05:57:56;;;;;;;22.92;7.78;;;;;;;;;;5178884;27;20077;-60
2022/02/12 06:00:22;;;;;;;13.30;8.25;;;;;;;;;;5178403;27;20495;-61
2022/02/12 06:02:48;;;;;;;17.87;9.10;;;;;;;;;;5180142;27;20585;-60
2022/02/12 06:05:14;;;;;;;19.87;9.02;;;;;;;;;;5180067;27;20089;-61
2022/02/12 06:07:40;;;;;;;16.42;9.02;;;;;;;;;;5180150;27;20611;-61
2022/02/12 06:10:06;;;;;;;20.70;11.63;;;;;;;;;;5179981;27;20086;-61
2022/02/12 06:12:32;;;;;;;20.27;11.25;;;;;;;;;;5180191;27;20105;-61
2022/02/12 06:14:59;;;;;;;23.35;11.57;;;;;;;;;;5180042;27;20181;-60
2022/02/12 06:17:25;;;;;;;19.02;10.25;;;;;;;;;;5180174;27;20183;-59
2022/02/12 06:19:50;;;;;;;16.05;9.75;;;;;;;;;;5180303;27;20106;-58
2022/02/12 06:22:17;;;;;;;16.95;9.05;;;;;;;;;;5179885;27;20085;-60
2022/02/12 06:24:43;;;;;;;19.23;9.68;;;;;;;;;;5196167;27;20168;-60
2022/02/12 06:27:09;;;;;;;16.80;8.85;;;;;;;;;;5180134;27;20085;-60
2022/02/12 06:29:35;;;;;;;16.00;7.62;;;;;;;;;;5179986;27;20073;-60
2022/02/12 06:32:01;;;;;;;18.50;8.20;;;;;;;;;;5180027;27;20094;-60
2022/02/12 06:34:27;;;;;;;13.15;8.13;;;;;;;;;;5179829;27;20418;-60
2022/02/12 06:36:53;;;;;;;15.15;7.72;;;;;;;;;;5179985;27;20066;-59
2022/02/12 06:39:19;;;;;;;12.43;7.05;;;;;;;;;;5179751;27;20158;-60
2022/02/12 06:41:45;;;;;;;17.00;7.85;;;;;;;;;;5179980;27;20094;-60
2022/02/12 06:44:11;;;;;;;16.08;7.62;;;;;;;;;;5180162;27;20070;-60
2022/02/12 06:46:37;;;;;;;13.52;7.10;;;;;;;;;;5179905;27;20201;-60
2022/02/12 06:49:03;;;;;;;12.95;6.32;;;;;;;;;;5179941;27;20097;-60
2022/02/12 06:51:29;;;;;;;13.13;6.43;;;;;;;;;;5177812;27;20198;-60
2022/02/12 06:53:55;;;;;;;12.52;6.47;;;;;;;;;;5178200;27;20074;-61
2022/02/12 06:56:22;;;;;;;15.75;7.35;;;;;;;;;;5177290;27;20082;-60
2022/02/12 06:58:48;;;;;;;16.77;7.60;;;;;;;;;;5177361;27;20073;-70
2022/02/12 07:01:14;;;;;;;20.37;8.27;;;;;;;;;;5177276;27;20098;-61
2022/02/12 07:03:40;;;;;;;21.23;8.27;;;;;;;;;;5194936;27;20465;-62
2022/02/12 07:06:06;;;;;;;19.80;8.40;;;;;;;;;;5179132;27;20073;-59
2022/02/12 07:08:32;;;;;;;19.60;8.88;;;;;;;;;;5179332;27;20168;-61
2022/02/12 07:10:59;;;;;;;20.98;10.57;;;;;;;;;;5195068;27;20094;-62
2022/02/12 07:13:25;;;;;;;22.20;8.40;;;;;;;;;;5160492;27;20101;-61
2022/02/12 07:15:51;;;;;;;17.77;9.00;;;;;;;;;;5176993;27;20132;-67
2022/02/12 07:18:17;;;;;;;17.83;7.78;;;;;;;;;;5159950;27;20164;-63
2022/02/12 07:20:43;;;;;;;14.73;8.10;;;;;;;;;;5177614;27;20399;-61
2022/02/12 07:23:10;;;;;;;13.98;7.50;;;;;;;;;;5177764;27;20085;-63
2022/02/12 07:25:37;;;;;;;14.63;7.68;;;;;;;;;;5178891;27;20149;-65
2022/02/12 07:28:03;;;;;;;16.15;8.05;;;;;;;;;;5179423;27;20085;-63
2022/02/12 07:30:29;;;;;;;15.73;7.80;;;;;;;;;;5177486;27;20098;-61
2022/02/12 07:32:56;;;;;;;13.40;7.25;;;;;;;;;;5142826;27;20097;-62
2022/02/12 07:35:22;;;;;;;10.93;6.30;;;;;;;;;;5177370;27;20489;-62
2022/02/12 07:37:49;;;;;;;15.05;5.82;;;;;;;;;;5195345;27;20090;-59
2022/02/12 07:40:16;;;;;;;8.13;5.00;;;;;;;;;;5178924;27;20185;-60
2022/02/12 07:42:43;;;;;;;8.38;4.60;;;;;;;;;;5178565;27;20185;-60
2022/02/12 07:45:09;;;;;;;11.15;5.10;;;;;;;;;;5176603;27;20128;-59
2022/02/12 07:47:36;;;;;;;10.70;5.03;;;;;;;;;;5194797;27;20077;-59
2022/02/12 07:50:04;;;;;;;6.37;4.28;;;;;;;;;;5178519;27;20098;-62
2022/02/12 07:52:30;;;;;;;8.63;5.00;;;;;;;;;;5177673;27;20073;-60
2022/02/12 07:54:56;;;;;;;6.22;4.70;;;;;;;;;;5195292;27;20167;-60
2022/02/12 07:57:22;;;;;;;10.15;5.35;;;;;;;;;;5177699;27;20511;-60
2022/02/12 07:59:49;;;;;;;6.55;4.70;;;;;;;;;;5179323;27;20073;-67
2022/02/12 08:02:15;;;;;;;13.40;6.12;;;;;;;;;;5195465;27;20094;-60
2022/02/12 08:04:41;;;;;;;8.82;4.97;;;;;;;;;;5178669;27;20248;-61
2022/02/12 08:09:52;;;;;;;7.65;4.55;;;;;;;;;;5179053;27;20450;-61
2022/02/12 08:12:22;;;;;;;13.77;5.75;;;;;;;;;;5179450;27;20160;-60
2022/02/12 08:14:52;;;;;;;8.65;4.60;;;;;;;;;;5179015;27;20077;-56
2022/02/12 08:17:20;;;;;;;7.72;5.18;;;;;;;;;;5179350;27;20179;-58
2022/02/12 08:19:47;;;;;;;8.23;4.72;;;;;;;;;;5177555;27;20073;-57
2022/02/12 08:22:14;;;;;;;7.12;4.87;;;;;;;;;;5178898;27;20158;-59
2022/02/12 08:24:41;;;;;;;7.20;4.50;;;;;;;;;;5179466;27;20236;-59
2022/02/12 08:27:11;;;;;;;10.00;5.00;;;;;;;;;;5195501;27;20168;-60
2022/02/12 08:29:45;;;;;;;10.27;4.62;;;;;;;;;;5179136;27;20066;-60
2022/02/12 08:32:11;;;;;;;8.00;5.18;;;;;;;;;;5179355;27;20476;-59
2022/02/12 08:34:37;;;;;;;7.60;4.78;;;;;;;;;;5177488;27;20121;-60
2022/02/12 08:37:03;;;;;;;6.55;4.10;;;;;;;;;;5179421;27;20160;-59
2022/02/12 08:39:30;;;;;;;9.77;3.90;;;;;;;;;;5179048;27;20077;-60
2022/02/12 08:41:56;;;;;;;7.30;4.47;;;;;;;;;;5179313;27;20078;-58
2022/02/12 08:44:22;;;;;;;7.07;4.53;;;;;;;;;;5179057;27;20421;-60
2022/02/12 08:46:48;;;;;;;8.73;4.45;;;;;;;;;;5178984;27;20163;-59
2022/02/12 08:49:17;;;;;;;11.23;4.47;;;;;;;;;;5178686;27;20081;-60
2022/02/12 08:51:43;;;;;;;8.23;4.28;;;;;;;;;;5178415;27;20089;-59
2022/02/12 08:54:12;;;;;;;10.73;4.97;;;;;;;;;;5178293;27;20094;-59
2022/02/12 08:56:39;;;;;;;7.07;3.90;;;;;;;;;;5178898;27;20081;-59
2022/02/12 08:59:05;;;;;;;9.55;4.78;;;;;;;;;;5178213;27;20168;-59
2022/02/12 09:01:33;;;;;;;10.98;5.15;;;;;;;;;;5176171;27;20082;-59
2022/02/12 09:04:00;;;;;;;10.40;5.65;;;;;;;;;;5177337;27;20187;-59
2022/02/12 09:06:26;;;;;;;14.13;5.93;;;;;;;;;;5176266;27;20093;-59
2022/02/12 09:08:52;;;;;;;12.52;5.78;;;;;;;;;;5178757;27;20161;-58
2022/02/12 09:11:19;;;;;;;12.60;5.20;;;;;;;;;;5179672;27;20508;-58
2022/02/12 09:13:47;;;;;;;10.38;5.62;;;;;;;;;;5178765;27;20089;-59
2022/02/12 09:16:13;;;;;;;14.60;6.20;;;;;;;;;;5177542;27;20528;-59
2022/02/12 09:18:39;;;;;;;11.05;5.93;;;;;;;;;;5177429;27;20088;-58
2022/02/12 09:21:05;;;;;;;9.32;4.93;;;;;;;;;;5179289;27;20426;-59
2022/02/12 09:23:31;;;;;;;7.20;4.15;;;;;;;;;;5179278;27;20516;-59
2022/02/12 09:25:58;;;;;;;8.50;4.65;;;;;;;;;;5180248;27;20093;-59
2022/02/12 09:28:24;;;;;;;7.07;4.62;;;;;;;;;;5180302;27;20076;-59
2022/02/12 09:30:50;;;;;;;7.37;4.20;;;;;;;;;;5180107;27;20180;-59
2022/02/12 09:33:17;;;;;;;5.90;4.07;;;;;;;;;;5180214;27;20480;-57
2022/02/12 09:35:43;;;;;;;8.35;4.40;;;;;;;;;;5196070;27;20094;-59
2022/02/12 09:38:10;;;;;;;6.93;4.28;;;;;;;;;;5196488;27;20105;-59
2022/02/12 09:40:38;;;;;;;9.93;4.55;;;;;;;;;;5180308;27;20501;-59
2022/02/12 09:43:05;;;;;;;9.07;4.80;;;;;;;;;;5178786;27;20086;-58
2022/02/12 09:45:44;;;;;;;6.15;3.87;;;;;;;;;;5180434;27;20417;-59
2022/02/12 09:48:13;;;;;;;7.32;3.70;;;;;;;;;;5177506;27;20093;-60
2022/02/12 09:50:40;;;;;;;5.43;3.85;;;;;;;;;;5177489;27;20087;-59
2022/02/12 09:53:07;;;;;;;8.05;4.28;;;;;;;;;;5177435;27;20092;-60
2022/02/12 09:55:35;;;;;;;10.77;4.35;;;;;;;;;;5177682;27;20189;-59
2022/02/12 09:58:05;;;;;;;8.70;4.80;;;;;;;;;;5177521;27;20070;-58
2022/02/12 10:00:31;;;;;;;7.78;4.32;;;;;;;;;;5178838;27;20180;-58
2022/02/12 10:02:57;;;;;;;5.70;3.90;;;;;;;;;;5175944;27;20086;-58
2022/02/12 10:05:27;;;;;;;7.07;4.72;;;;;;;;;;5174900;27;20090;-59
2022/02/12 10:08:15;;;;;;;7.07;4.18;;;;;;;;;;5175287;27;20086;-59
2022/02/12 10:10:43;;;;;;;7.55;4.50;;;;;;;;;;5173528;27;20513;-58
2022/02/12 10:13:27;;;;;;;10.70;5.18;;;;;;;;;;5175412;27;20102;-59
2022/02/12 10:16:04;;;;;;;7.55;5.43;;;;;;;;;;5175517;27;20435;-60
2022/02/12 10:18:36;;;;;;;13.75;5.37;;;;;;;;;;5178441;27;20150;-60
2022/02/12 10:21:03;;;;;;;11.00;5.53;;;;;;;;;;5195310;27;20101;-59
2022/02/12 10:23:30;;;;;;;7.95;5.20;;;;;;;;;;5178183;27;20086;-59
2022/02/12 10:26:02;;;;;;;8.43;4.28;;;;;;;;;;5179509;27;20096;-58
2022/02/12 10:28:30;;;;;;;9.48;5.45;;;;;;;;;;5179575;27;20153;-58
2022/02/12 10:30:57;;;;;;;7.85;5.28;;;;;;;;;;5179841;27;20067;-59
2022/02/12 10:33:25;;;;;;;9.70;5.45;;;;;;;;;;5179529;27;20504;-58
2022/02/12 10:35:59;;;;;;;11.12;5.40;;;;;;;;;;5179604;27;20070;-61
2022/02/12 10:38:28;;;;;;;11.77;5.62;;;;;;;;;;5195698;27;20105;-58
2022/02/12 10:41:05;;;;;;;7.57;4.68;;;;;;;;;;5179312;27;20098;-59
2022/02/12 10:43:32;;;;;;;9.38;5.20;;;;;;;;;;5178269;27;20070;-60
2022/02/12 10:45:59;;;;;;;7.35;4.85;;;;;;;;;;5179489;27;20094;-59
2022/02/12 10:48:25;;;;;;;9.10;5.18;;;;;;;;;;5179631;27;20083;-58
2022/02/12 10:51:00;;;;;;;8.18;5.05;;;;;;;;;;5179597;27;20081;-59
2022/02/12 10:53:26;;;;;;;7.62;4.65;;;;;;;;;;5160485;27;20082;-60
2022/02/12 10:55:59;;;;;;;7.10;4.78;;;;;;;;;;5177663;27;20104;-60
2022/02/12 10:58:25;;;;;;;7.68;5.03;;;;;;;;;;5160494;27;20089;-60
2022/02/12 11:00:52;;;;;;;10.02;5.62;;;;;;;;;;5177699;27;20162;-60
2022/02/12 11:03:20;;;;;;;11.25;5.07;;;;;;;;;;5179179;27;20067;-61
2022/02/12 11:05:52;;;;;;;9.85;5.07;;;;;;;;;;5179121;27;20101;-61
2022/02/12 11:08:25;;;;;;;7.47;4.57;;;;;;;;;;5179495;27;20191;-59
2022/02/12 11:10:52;;;;;;;11.23;5.22;;;;;;;;;;5179587;27;20082;-58
2022/02/12 11:13:21;;;;;;;9.45;5.03;;;;;;;;;;5179328;27;20082;-58
2022/02/12 11:15:51;;;;;;;7.87;4.50;;;;;;;;;;5179138;27;20175;-58
2022/02/12 11:18:21;;;;;;;9.15;5.10;;;;;;;;;;5178982;27;20061;-58
2022/02/12 11:20:48;;;;;;;7.82;4.25;;;;;;;;;;5179180;27;20163;-58
2022/02/12 11:23:24;;;;;;;9.68;5.25;;;;;;;;;;5179342;27;20077;-59
2022/02/12 11:25:51;;;;;;;7.72;4.65;;;;;;;;;;5178956;27;20077;-59
2022/02/12 11:28:19;;;;;;;10.35;4.60;;;;;;;;;;5195931;27;20078;-59
2022/02/12 11:30:45;;;;;;;9.50;5.10;;;;;;;;;;5177304;27;20167;-59
2022/02/12 11:33:19;;;;;;;10.98;5.00;;;;;;;;;;5179229;27;20082;-59
2022/02/12 11:36:15;;;;;;;8.10;4.93;;;;;;;;;;5179305;27;20164;-58
2022/02/12 11:38:42;;;;;;;8.48;4.30;;;;;;;;;;5179084;27;20088;-60
2022/02/12 11:41:24;;;;;;;8.82;4.65;;;;;;;;;;5179101;27;20089;-59
2022/02/12 11:43:51;;;;;;;8.27;4.78;;;;;;;;;;5179510;27;20106;-59
2022/02/12 11:46:43;;;;;;;10.05;4.95;;;;;;;;;;5179655;27;20066;-59
2022/02/12 11:49:43;;;;;;;7.12;4.32;;;;;;;;;;5178807;27;20098;-59
2022/02/12 11:52:15;;;;;;;7.05;4.03;;;;;;;;;;5179379;27;20062;-58
2022/02/12 11:54:44;;;;;;;5.68;4.10;;;;;;;;;;5178343;27;20157;-59
2022/02/12 11:57:14;;;;;;;7.40;4.35;;;;;;;;;;5195326;27;20088;-59
2022/02/12 11:59:40;;;;;;;6.90;4.20;;;;;;;;;;5179233;27;20070;-58
2022/02/12 12:02:07;;;;;;;7.57;4.37;;;;;;;;;;5159825;27;20084;-59
2022/02/12 12:04:33;;;;;;;10.98;4.10;;;;;;;;;;5179042;27;20090;-59
2022/02/12 12:06:59;;;;;;;9.38;4.03;;;;;;;;;;5142653;27;20078;-60
2022/02/12 12:09:54;;;;;;;9.90;4.15;;;;;;;;;;5178922;27;20136;-59
2022/02/12 12:12:22;;;;;;;7.03;4.10;;;;;;;;;;5174280;27;20101;-60
2022/02/12 12:14:48;;;;;;;14.05;4.97;;;;;;;;;;5177396;27;20244;-59
2022/02/12 12:17:15;;;;;;;7.22;4.10;;;;;;;;;;5179358;27;20505;-59
2022/02/12 12:19:43;;;;;;;7.10;4.05;;;;;;;;;;5194838;27;20078;-59
2022/02/12 12:22:11;;;;;;;7.22;4.35;;;;;;;;;;5176724;27;20099;-57
2022/02/12 12:24:38;;;;;;;7.65;4.20;;;;;;;;;;5179197;27;20124;-59
2022/02/12 12:27:05;;;;;;;7.62;4.12;;;;;;;;;;5179415;27;20071;-59
2022/02/12 12:32:21;;;;;;;5.40;4.35;;;;;;;;;;5178490;27;20172;-58
2022/02/12 12:34:57;;;;;;;6.87;4.28;;;;;;;;;;5142896;27;20086;-60
2022/02/12 12:37:24;;;;;;;7.28;3.90;;;;;;;;;;5178674;27;20418;-59
2022/02/12 12:39:51;;;;;;;5.62;3.80;;;;;;;;;;5180782;27;20066;-60
2022/02/12 12:42:21;;;;;;;8.50;4.28;;;;;;;;;;5144503;27;20156;-59
2022/02/12 12:44:58;;;;;;;8.95;4.90;;;;;;;;;;5178983;27;20077;-59
2022/02/12 12:47:26;;;;;;;9.13;4.50;;;;;;;;;;5179314;27;20098;-60
2022/02/12 12:49:54;;;;;;;7.62;4.47;;;;;;;;;;5161488;27;20169;-59
2022/02/12 12:52:23;;;;;;;7.95;4.60;;;;;;;;;;5144374;27;20082;-59
2022/02/12 12:54:55;;;;;;;7.30;4.37;;;;;;;;;;5180462;27;20868;-58
2022/02/12 12:57:29;;;;;;;6.05;4.20;;;;;;;;;;5144724;27;20078;-58
2022/02/12 12:59:57;;;;;;;7.57;4.05;;;;;;;;;;5144846;27;20072;-61
2022/02/12 13:02:25;;;;;;;10.20;4.87;;;;;;;;;;5144395;27;20405;-59
2022/02/12 13:04:56;;;;;;;7.40;4.10;;;;;;;;;;5178909;27;20102;-60
2022/02/12 13:07:25;;;;;;;9.77;4.30;;;;;;;;;;5196864;27;20058;-59
2022/02/12 13:09:52;;;;;;;7.05;4.00;;;;;;;;;;5178736;27;20470;-59
2022/02/12 13:12:28;;;;;;;6.00;3.45;;;;;;;;;;5178874;27;20101;-60
2022/02/12 13:14:57;;;;;;;7.45;3.65;;;;;;;;;;5180706;27;20164;-60
2022/02/12 13:17:23;;;;;;;6.72;3.70;;;;;;;;;;5180496;27;20422;-59
2022/02/12 13:19:50;;;;;;;7.05;3.80;;;;;;;;;;5196234;27;20496;-60
2022/02/12 13:22:17;;;;;;;6.00;3.62;;;;;;;;;;5180281;27;20093;-59
2022/02/12 13:24:52;;;;;;;3.80;3.00;;;;;;;;;;5180448;27;20426;-60
2022/02/12 13:27:23;;;;;;;6.75;3.97;;;;;;;;;;5178219;27;20085;-60
2022/02/12 13:29:50;;;;;;;9.20;4.25;;;;;;;;;;5180473;27;20161;-62
2022/02/12 13:32:16;;;;;;;9.65;3.78;;;;;;;;;;5180412;27;20180;-63
2022/02/12 13:34:49;;;;;;;9.50;5.20;;;;;;;;;;5178596;27;20066;-65
2022/02/12 13:37:15;;;;;;;12.27;6.78;;;;;;;;;;5178737;27;20078;-63
2022/02/12 13:39:52;;;;;;;10.00;5.28;;;;;;;;;;5178620;27;20214;-63
2022/02/12 13:42:22;;;;;;;8.23;5.25;;;;;;;;;;5180351;27;20396;-62
2022/02/12 13:44:58;;;;;;;8.07;4.20;;;;;;;;;;5180144;27;20101;-62
2022/02/12 13:47:24;;;;;;;8.57;3.72;;;;;;;;;;5178690;27;20170;-66
2022/02/12 13:49:51;;;;;;;11.57;5.07;;;;;;;;;;5180010;27;20618;-66
2022/02/12 13:52:22;;;;;;;9.88;4.43;;;;;;;;;;5180185;27;20082;-66
2022/02/12 13:55:02;;;;;;;8.00;4.18;;;;;;;;;;5179972;27;20093;-61
2022/02/12 13:57:28;;;;;;;9.93;4.95;;;;;;;;;;5180297;27;20176;-63
2022/02/12 13:59:54;;;;;;;9.88;4.87;;;;;;;;;;5180630;27;20417;-60
2022/02/12 14:02:20;;;;;;;7.07;4.70;;;;;;;;;;5180104;27;20081;-61
2022/02/12 14:04:46;;;;;;;8.38;4.75;;;;;;;;;;5180430;27;20081;-60
2022/02/12 14:07:12;;;;;;;6.97;4.35;;;;;;;;;;5180254;27;20077;-59
2022/02/12 14:09:38;;;;;;;8.38;5.25;;;;;;;;;;5180037;27;20474;-59
2022/02/12 14:12:04;;;;;;;9.57;5.97;;;;;;;;;;5180501;27;20082;-61
2022/02/12 14:14:30;;;;;;;9.15;5.40;;;;;;;;;;5180362;27;20090;-59
2022/02/12 14:16:58;;;;;;;9.23;5.10;;;;;;;;;;5180203;27;20078;-58
2022/02/12 14:19:24;;;;;;;8.35;3.83;;;;;;;;;;5179975;27;20079;-61
2022/02/12 14:21:50;;;;;;;7.45;3.90;;;;;;;;;;5179971;27;20104;-65
2022/02/12 14:24:16;;;;;;;6.50;4.43;;;;;;;;;;5195754;27;20190;-62
2022/02/12 14:26:44;;;;;;;7.62;4.30;;;;;;;;;;5180078;27;20082;-61
2022/02/12 14:29:10;;;;;;;8.27;4.05;;;;;;;;;;5161404;27;20105;-62
2022/02/12 14:31:36;;;;;;;10.20;4.72;;;;;;;;;;5179912;27;20394;-62
2022/02/12 14:34:02;;;;;;;7.78;5.47;;;;;;;;;;5161234;27;20089;-62
2022/02/12 14:36:28;;;;;;;5.90;4.30;;;;;;;;;;5180052;27;20089;-61
2022/02/12 14:38:55;;;;;;;8.77;4.62;;;;;;;;;;5180007;27;20084;-62
2022/02/12 14:41:22;;;;;;;6.00;4.20;;;;;;;;;;5179853;27;20066;-63
2022/02/12 14:43:48;;;;;;;7.18;4.57;;;;;;;;;;5179891;27;20085;-60
2022/02/12 14:46:14;;;;;;;9.30;5.75;;;;;;;;;;5179658;27;20121;-62
2022/02/12 14:48:40;;;;;;;6.60;4.80;;;;;;;;;;5179901;27;20112;-61
2022/02/12 14:51:06;;;;;;;6.87;4.78;;;;;;;;;;5179829;27;20081;-62
2022/02/12 14:53:32;;;;;;;7.72;4.82;;;;;;;;;;5178214;27;20085;-61
2022/02/12 14:55:58;;;;;;;6.80;4.65;;;;;;;;;;5180042;27;20176;-61
2022/02/12 14:58:25;;;;;;;5.93;4.40;;;;;;;;;;5179903;27;20543;-64
2022/02/12 15:00:52;;;;;;;7.72;5.30;;;;;;;;;;5178182;27;20077;-64
2022/02/12 15:03:18;;;;;;;8.43;6.15;;;;;;;;;;5180053;27;20081;-62
2022/02/12 15:05:44;;;;;;;10.60;6.10;;;;;;;;;;5179913;27;20116;-65